createdAt,value
2022-08-14T00:00:59.249Z,66.49
2022-08-14T00:03:02.439Z,66.96
2022-08-14T00:05:10.124Z,67.76
2022-08-14T00:07:14.813Z,66.51
2022-08-14T00:09:18.448Z,67.92
2022-08-14T00:11:23.238Z,67.09
2022-08-14T00:13:29.083Z,66.91
2022-08-14T00:15:43.332Z,66.51
2022-08-14T00:17:52.977Z,67.34
2022-08-14T00:19:56.749Z,67.77
2022-08-14T00:22:01.169Z,67.86
2022-08-14T00:24:04.900Z,67.20
2022-08-14T00:26:08.439Z,67.88
2022-08-14T00:28:29.056Z,67.73
2022-08-14T00:30:35.732Z,68.63
2022-08-14T00:32:52.688Z,67.69
2022-08-14T00:35:01.457Z,68.40
2022-08-14T00:37:06.622Z,68.49
2022-08-14T00:39:14.233Z,68.20
2022-08-14T00:41:17.709Z,68.10
2022-08-14T00:43:21.110Z,69.05
2022-08-14T00:45:24.697Z,68.49
2022-08-14T00:47:27.893Z,68.58
2022-08-14T00:49:38.086Z,68.78
2022-08-14T00:51:46.397Z,68.29
2022-08-14T00:53:53.835Z,69.44
2022-08-14T00:55:57.684Z,69.40
2022-08-14T00:58:18.875Z,69.41
2022-08-14T01:00:37.125Z,69.29
2022-08-14T01:02:47.088Z,69.86
2022-08-14T01:05:00.798Z,69.64
2022-08-14T01:07:08.141Z,70.05
2022-08-14T01:09:14.234Z,70.19
2022-08-14T01:11:19.083Z,70.05
2022-08-14T01:13:25.110Z,69.81
2022-08-14T01:15:57.458Z,70.00
2022-08-14T01:18:20.149Z,69.92
2022-08-14T01:20:42.679Z,70.23
2022-08-14T01:22:50.204Z,69.52
2022-08-14T01:24:53.667Z,68.78
2022-08-14T01:26:57.779Z,69.80
2022-08-14T01:29:06.048Z,69.94
2022-08-14T01:31:12.608Z,70.02
2022-08-14T01:33:17.996Z,70.21
2022-08-14T01:36:03.461Z,70.38
2022-08-14T01:37:56.061Z,69.97
2022-08-14T01:40:03.013Z,70.13
2022-08-14T01:42:07.174Z,70.12
2022-08-14T01:44:32.826Z,70.40
2022-08-14T01:46:40.088Z,70.66
2022-08-14T01:48:44.338Z,70.71
2022-08-14T01:50:47.711Z,71.08
2022-08-14T01:52:58.414Z,70.95
2022-08-14T01:55:06.752Z,70.89
2022-08-14T01:57:11.573Z,70.89
2022-08-14T01:59:21.848Z,71.11
2022-08-14T02:01:26.674Z,71.07
2022-08-14T02:03:34.502Z,70.82
2022-08-14T02:05:39.108Z,71.31
2022-08-14T02:07:53.704Z,71.30
2022-08-14T02:09:59.974Z,71.70
2022-08-14T02:12:06.723Z,71.08
2022-08-14T02:14:14.255Z,71.43
2022-08-14T02:16:22.455Z,71.35
2022-08-14T02:18:28.104Z,71.40
2022-08-14T02:20:36.222Z,70.65
2022-08-14T02:22:47.418Z,71.51
2022-08-14T02:24:52.313Z,71.67
2022-08-14T02:28:20.240Z,72.12
2022-08-14T02:29:24.404Z,71.66
2022-08-14T02:31:50.208Z,71.25
2022-08-14T02:33:55.061Z,71.11
2022-08-14T02:36:05.018Z,71.76
2022-08-14T02:38:30.014Z,72.14
2022-08-14T02:40:37.973Z,71.65
2022-08-14T02:42:41.678Z,72.85
2022-08-14T02:45:00.436Z,72.71
2022-08-14T02:47:14.672Z,71.84
2022-08-14T02:49:21.638Z,72.21
2022-08-14T02:51:30.703Z,72.24
2022-08-14T02:53:35.078Z,72.72
2022-08-14T02:55:41.295Z,73.60
2022-08-14T02:57:45.038Z,73.25
2022-08-14T02:59:57.449Z,73.84
2022-08-14T03:02:03.110Z,72.87
2022-08-14T03:04:09.919Z,72.71
2022-08-14T03:06:20.615Z,72.99
2022-08-14T03:08:39.620Z,72.83
2022-08-14T03:10:50.322Z,74.04
2022-08-14T03:12:53.539Z,73.03
2022-08-14T03:14:56.951Z,74.41
2022-08-14T03:17:00.073Z,74.40
2022-08-14T03:19:07.138Z,73.41
2022-08-14T03:21:13.309Z,74.12
2022-08-14T03:23:16.777Z,73.28
2022-08-14T03:25:21.768Z,74.02
2022-08-14T03:27:35.199Z,73.52
2022-08-14T03:29:50.142Z,75.05
2022-08-14T03:31:53.278Z,73.51
2022-08-14T03:33:56.937Z,75.16
2022-08-14T03:37:38.575Z,73.38
2022-08-14T03:39:11.904Z,73.98
2022-08-14T03:40:54.740Z,75.95
2022-08-14T03:42:58.961Z,75.43
2022-08-14T03:45:25.121Z,76.04
2022-08-14T03:47:34.237Z,76.24
2022-08-14T03:49:50.021Z,74.75
2022-08-14T03:51:54.821Z,75.29
2022-08-14T03:53:59.565Z,75.43
2022-08-14T03:56:02.598Z,76.76
2022-08-14T03:58:06.873Z,74.56
2022-08-14T04:00:27.616Z,74.69
2022-08-14T04:02:37.420Z,76.36
2022-08-14T04:04:50.377Z,76.01
2022-08-14T04:06:54.799Z,76.71
2022-08-14T04:09:01.812Z,75.98
2022-08-14T04:11:07.779Z,76.68
2022-08-14T04:13:16.476Z,75.30
2022-08-14T04:15:21.169Z,76.83
2022-08-14T04:17:29.413Z,76.08
2022-08-14T04:19:36.359Z,77.32
2022-08-14T04:22:03.435Z,75.33
2022-08-14T04:24:06.070Z,75.41
2022-08-14T04:26:14.413Z,76.29
2022-08-14T04:29:07.128Z,75.08
2022-08-14T04:30:42.289Z,76.09
2022-08-14T04:33:02.249Z,76.01
2022-08-14T04:35:10.546Z,77.28
2022-08-14T04:37:31.678Z,77.27
2022-08-14T04:39:56.596Z,76.84
2022-08-14T04:42:18.011Z,77.37
2022-08-14T04:44:36.116Z,76.00
2022-08-14T04:46:54.786Z,77.61
2022-08-14T04:49:00.359Z,77.18
2022-08-14T04:51:05.841Z,76.46
2022-08-14T04:53:11.023Z,76.24
2022-08-14T04:55:15.525Z,75.98
2022-08-14T04:57:19.259Z,77.39
2022-08-14T04:59:23.645Z,76.72
2022-08-14T05:01:27.650Z,76.68
2022-08-14T05:03:33.578Z,77.98
2022-08-14T05:05:36.794Z,77.18
2022-08-14T05:07:53.939Z,76.30
2022-08-14T05:09:57.949Z,77.19
2022-08-14T05:13:11.149Z,78.21
2022-08-14T05:14:45.946Z,77.00
2022-08-14T05:16:49.930Z,77.24
2022-08-14T05:19:17.907Z,78.16
2022-08-14T05:22:00.075Z,77.94
2022-08-14T05:23:41.787Z,75.99
2022-08-14T05:25:47.403Z,75.18
2022-08-14T05:27:53.821Z,74.40
2022-08-14T05:29:58.075Z,73.63
2022-08-14T05:32:06.335Z,72.82
2022-08-14T05:34:10.642Z,71.75
2022-08-14T05:36:16.764Z,71.34
2022-08-14T05:38:22.276Z,70.58
2022-08-14T05:40:35.243Z,70.37
2022-08-14T05:42:38.937Z,69.20
2022-08-14T05:44:46.090Z,70.23
2022-08-14T05:46:49.242Z,68.97
2022-08-14T05:48:54.259Z,66.91
2022-08-14T05:50:57.406Z,66.93
2022-08-14T05:53:01.957Z,66.70
2022-08-14T05:55:05.664Z,65.22
2022-08-14T05:57:08.717Z,66.14
2022-08-14T05:59:14.011Z,65.85
2022-08-14T06:01:21.483Z,66.61
2022-08-14T06:03:26.751Z,64.79
2022-08-14T06:05:30.391Z,64.62
2022-08-14T06:07:36.764Z,63.69
2022-08-14T06:09:40.633Z,63.94
2022-08-14T06:11:43.970Z,64.23
2022-08-14T06:13:52.970Z,62.69
2022-08-14T06:15:57.447Z,62.95
2022-08-14T06:18:02.650Z,62.08
2022-08-14T06:20:06.886Z,61.57
2022-08-14T06:22:13.461Z,61.26
2022-08-14T06:24:20.649Z,62.08
2022-08-14T06:26:30.258Z,61.53
2022-08-14T06:28:33.952Z,61.05
2022-08-14T06:30:45.975Z,60.34
2022-08-14T06:32:52.484Z,60.86
2022-08-14T06:35:04.692Z,59.86
2022-08-14T06:37:18.683Z,58.13
2022-08-14T06:39:36.517Z,58.90
2022-08-14T06:41:58.650Z,58.08
2022-08-14T06:44:02.826Z,58.04
2022-08-14T06:46:06.308Z,59.02
2022-08-14T06:48:23.711Z,57.41
2022-08-14T06:50:30.269Z,56.45
2022-08-14T06:52:33.586Z,55.66
2022-08-14T06:54:36.716Z,55.79
2022-08-14T06:56:40.286Z,55.80
2022-08-14T06:58:47.561Z,55.40
2022-08-14T07:01:08.151Z,55.80
2022-08-14T07:03:29.091Z,55.22
2022-08-14T07:05:55.529Z,54.55
2022-08-14T07:08:01.069Z,55.39
2022-08-14T07:10:05.050Z,55.19
2022-08-14T07:12:08.935Z,55.89
2022-08-14T07:14:31.946Z,55.16
2022-08-14T07:16:35.278Z,55.79
2022-08-14T07:18:40.768Z,55.13
2022-08-14T07:20:45.570Z,55.31
2022-08-14T07:22:56.424Z,54.13
2022-08-14T07:25:00.264Z,55.43
2022-08-14T07:27:03.384Z,54.64
2022-08-14T07:29:06.446Z,54.79
2022-08-14T07:31:11.513Z,53.81
2022-08-14T07:33:14.715Z,54.34
2022-08-14T07:35:18.104Z,53.87
2022-08-14T07:37:22.538Z,54.06
2022-08-14T07:39:27.523Z,53.31
2022-08-14T07:41:33.538Z,53.97
2022-08-14T07:43:37.770Z,52.73
2022-08-14T07:45:42.335Z,52.38
2022-08-14T07:47:45.529Z,51.52
2022-08-14T07:49:56.124Z,51.64
2022-08-14T07:51:59.966Z,51.17
2022-08-14T07:54:11.002Z,50.88
2022-08-14T07:56:44.114Z,50.46
2022-08-14T07:58:38.848Z,50.80
2022-08-14T08:00:56.550Z,49.74
2022-08-14T08:03:00.621Z,50.15
2022-08-14T08:05:04.001Z,49.72
2022-08-14T08:07:07.831Z,49.72
2022-08-14T08:09:13.235Z,49.86
2022-08-14T08:11:19.456Z,49.53
2022-08-14T08:13:24.432Z,49.49
2022-08-14T08:15:29.195Z,48.22
2022-08-14T08:17:34.805Z,47.45
2022-08-14T08:19:41.508Z,48.27
2022-08-14T08:21:47.631Z,47.58
2022-08-14T08:23:51.620Z,47.23
2022-08-14T08:25:58.516Z,47.86
2022-08-14T08:28:08.196Z,47.68
2022-08-14T08:30:13.050Z,47.67
2022-08-14T08:32:16.147Z,46.71
2022-08-14T08:34:19.782Z,46.18
2022-08-14T08:36:29.950Z,45.35
2022-08-14T08:39:17.840Z,47.68
2022-08-14T08:41:00.069Z,45.76
2022-08-14T08:43:04.132Z,45.57
2022-08-14T08:45:12.142Z,45.06
2022-08-14T08:47:15.417Z,45.62
2022-08-14T08:49:19.321Z,44.77
2022-08-14T08:51:33.599Z,45.08
2022-08-14T08:53:38.025Z,44.61
2022-08-14T08:55:46.507Z,43.63
2022-08-14T08:57:55.262Z,43.84
2022-08-14T08:59:58.741Z,43.80
2022-08-14T09:02:05.324Z,43.13
2022-08-14T09:04:14.724Z,42.73
2022-08-14T09:06:59.931Z,41.83
2022-08-14T09:08:46.265Z,42.70
2022-08-14T09:10:52.447Z,41.43
2022-08-14T09:13:01.005Z,42.45
2022-08-14T09:15:11.455Z,42.48
2022-08-14T09:17:15.551Z,42.39
2022-08-14T09:19:19.065Z,42.17
2022-08-14T09:21:31.424Z,41.60
2022-08-14T09:24:26.158Z,42.71
2022-08-14T09:26:00.042Z,41.79
2022-08-14T09:28:06.800Z,42.43
2022-08-14T09:30:30.662Z,41.96
2022-08-14T09:32:58.688Z,42.24
2022-08-14T09:35:08.481Z,41.83
2022-08-14T09:37:22.439Z,42.06
2022-08-14T09:39:38.335Z,42.08
2022-08-14T09:42:21.253Z,42.46
2022-08-14T09:44:31.063Z,41.95
2022-08-14T09:46:34.762Z,42.46
2022-08-14T09:48:38.725Z,42.47
2022-08-14T09:50:47.314Z,42.98
2022-08-14T09:52:54.943Z,43.00
2022-08-14T09:54:59.759Z,41.98
2022-08-14T09:57:06.582Z,42.57
2022-08-14T09:59:14.933Z,43.00
2022-08-14T10:01:21.346Z,43.05
2022-08-14T10:03:33.944Z,43.05
2022-08-14T10:05:39.523Z,43.87
2022-08-14T10:07:53.775Z,42.82
2022-08-14T10:10:02.549Z,43.61
2022-08-14T10:12:28.750Z,42.36
2022-08-14T10:14:37.111Z,43.04
2022-08-14T10:16:45.467Z,42.07
2022-08-14T10:18:51.025Z,42.60
2022-08-14T10:20:57.819Z,42.25
2022-08-14T10:23:21.874Z,42.28
2022-08-14T10:25:26.790Z,43.34
2022-08-14T10:27:30.060Z,42.65
2022-08-14T10:29:35.142Z,43.29
2022-08-14T10:31:45.179Z,42.16
2022-08-14T10:34:04.973Z,43.98
2022-08-14T10:36:35.251Z,42.47
2022-08-14T10:38:44.093Z,42.88
2022-08-14T10:40:59.425Z,42.48
2022-08-14T10:43:05.300Z,43.31
2022-08-14T10:45:21.195Z,43.72
2022-08-14T10:47:41.429Z,43.38
2022-08-14T10:50:01.558Z,43.31
2022-08-14T10:52:07.169Z,43.28
2022-08-14T10:54:25.971Z,42.44
2022-08-14T10:56:35.743Z,42.13
2022-08-14T10:58:38.863Z,42.67
2022-08-14T11:00:46.978Z,43.49
2022-08-14T11:02:59.074Z,42.57
2022-08-14T11:05:08.591Z,43.22
2022-08-14T11:07:21.228Z,42.51
2022-08-14T11:09:26.597Z,43.27
2022-08-14T11:11:43.846Z,43.61
2022-08-14T11:13:50.893Z,43.15
2022-08-14T11:15:56.155Z,43.89
2022-08-14T11:18:01.453Z,43.04
2022-08-14T11:20:13.695Z,42.52
2022-08-14T11:22:52.549Z,42.14
2022-08-14T11:24:54.803Z,42.40
2022-08-14T11:27:00.669Z,41.84
2022-08-14T11:29:05.749Z,42.02
2022-08-14T11:31:10.650Z,42.69
2022-08-14T11:33:14.048Z,42.82
2022-08-14T11:35:22.173Z,43.59
2022-08-14T11:37:35.209Z,42.86
2022-08-14T11:39:42.608Z,42.37
2022-08-14T11:41:56.046Z,43.86
2022-08-14T11:43:59.752Z,43.60
2022-08-14T11:46:03.712Z,43.22
2022-08-14T11:49:01.693Z,42.75
2022-08-14T11:50:43.389Z,42.25
2022-08-14T11:52:50.731Z,42.96
2022-08-14T11:55:00.498Z,42.93
2022-08-14T11:57:04.443Z,43.40
2022-08-14T11:59:10.282Z,41.98
2022-08-14T12:01:16.053Z,42.01
2022-08-14T12:03:37.642Z,41.68
2022-08-14T12:05:43.704Z,42.65
2022-08-14T12:07:50.305Z,43.49
2022-08-14T12:09:55.969Z,42.35
2022-08-14T12:11:59.804Z,43.29
2022-08-14T12:14:13.596Z,42.73
2022-08-14T12:16:33.234Z,43.06
2022-08-14T12:18:38.364Z,43.13
2022-08-14T12:20:45.872Z,42.63
2022-08-14T12:22:55.266Z,42.70
2022-08-14T12:24:58.727Z,41.89
2022-08-14T12:27:02.806Z,42.27
2022-08-14T12:29:08.606Z,41.95
2022-08-14T12:31:20.726Z,42.59
2022-08-14T12:33:30.607Z,41.46
2022-08-14T12:35:39.672Z,41.83
2022-08-14T12:37:50.755Z,42.76
2022-08-14T12:39:54.073Z,42.74
2022-08-14T12:42:06.651Z,41.55
2022-08-14T12:44:09.774Z,41.92
2022-08-14T12:46:27.198Z,43.18
2022-08-14T12:48:32.515Z,42.46
2022-08-14T12:50:37.466Z,41.30
2022-08-14T12:52:56.012Z,41.16
2022-08-14T12:55:08.940Z,41.24
2022-08-14T12:57:18.977Z,42.23
2022-08-14T12:59:30.937Z,41.70
2022-08-14T13:02:01.731Z,42.25
2022-08-14T13:04:07.221Z,41.99
2022-08-14T13:06:10.648Z,41.39
2022-08-14T13:08:33.565Z,42.08
2022-08-14T13:10:47.724Z,42.47
2022-08-14T13:13:13.239Z,41.87
2022-08-14T13:15:19.358Z,42.06
2022-08-14T13:17:24.271Z,42.32
2022-08-14T13:19:30.990Z,42.51
2022-08-14T13:22:05.907Z,41.99
2022-08-14T13:23:57.693Z,42.14
2022-08-14T13:26:02.889Z,41.20
2022-08-14T13:28:11.103Z,42.00
2022-08-14T13:30:23.400Z,42.35
2022-08-14T13:32:28.671Z,41.41
2022-08-14T13:34:31.906Z,41.51
2022-08-14T13:36:56.985Z,41.85
2022-08-14T13:39:00.395Z,42.38
2022-08-14T13:41:06.104Z,41.61
2022-08-14T13:43:09.883Z,41.34
2022-08-14T13:45:13.823Z,42.42
2022-08-14T13:47:20.750Z,42.46
2022-08-14T13:49:24.309Z,42.19
2022-08-14T13:51:33.284Z,42.53
2022-08-14T13:53:49.533Z,41.86
2022-08-14T13:56:14.666Z,42.47
2022-08-14T13:58:33.509Z,42.41
2022-08-14T14:00:53.082Z,41.33
2022-08-14T14:02:59.788Z,41.40
2022-08-14T14:05:05.207Z,41.70
2022-08-14T14:07:11.500Z,41.67
2022-08-14T14:09:16.400Z,41.86
2022-08-14T14:11:23.877Z,41.52
2022-08-14T14:13:27.883Z,40.28
2022-08-14T14:15:58.175Z,41.15
2022-08-14T14:18:01.467Z,41.02
2022-08-14T14:20:06.212Z,40.79
2022-08-14T14:22:09.790Z,39.64
2022-08-14T14:24:16.132Z,40.18
2022-08-14T14:26:24.064Z,41.42
2022-08-14T14:28:32.337Z,40.58
2022-08-14T14:30:52.588Z,39.64
2022-08-14T14:33:05.194Z,39.89
2022-08-14T14:35:12.359Z,41.10
2022-08-14T14:37:15.509Z,39.66
2022-08-14T14:39:21.262Z,40.52
2022-08-14T14:41:37.961Z,40.41
2022-08-14T14:43:51.589Z,40.56
2022-08-14T14:45:56.271Z,41.13
2022-08-14T14:48:01.951Z,42.20
2022-08-14T14:50:08.265Z,41.79
2022-08-14T14:52:23.482Z,41.97
2022-08-14T14:54:37.391Z,41.02
2022-08-14T14:56:49.304Z,41.24
2022-08-14T14:58:56.023Z,41.36
2022-08-14T15:01:00.534Z,40.73
2022-08-14T15:03:07.020Z,40.10
2022-08-14T15:05:11.258Z,41.33
2022-08-14T15:07:16.734Z,40.83
2022-08-14T15:09:20.310Z,41.20
2022-08-14T15:11:23.538Z,40.94
2022-08-14T15:13:28.239Z,40.42
2022-08-14T15:15:37.838Z,41.52
2022-08-14T15:17:43.242Z,40.74
2022-08-14T15:19:56.959Z,40.68
2022-08-14T15:22:00.330Z,39.91
2022-08-14T15:24:04.177Z,40.37
2022-08-14T15:26:07.764Z,40.62
2022-08-14T15:28:13.076Z,40.63
2022-08-14T15:30:32.028Z,39.98
2022-08-14T15:32:36.228Z,40.41
2022-08-14T15:34:43.851Z,40.57
2022-08-14T15:36:50.904Z,42.09
2022-08-14T15:38:54.282Z,41.74
2022-08-14T15:40:57.365Z,41.56
2022-08-14T15:43:00.812Z,40.79
2022-08-14T15:45:05.682Z,41.24
2022-08-14T15:47:10.256Z,40.28
2022-08-14T15:49:13.866Z,40.36
2022-08-14T15:51:17.254Z,42.56
2022-08-14T15:53:22.251Z,41.02
2022-08-14T15:55:25.495Z,41.49
2022-08-14T15:57:29.357Z,41.35
2022-08-14T15:59:54.035Z,41.40
2022-08-14T16:01:57.178Z,41.32
2022-08-14T16:04:01.778Z,41.32
2022-08-14T16:06:05.652Z,40.13
2022-08-14T16:08:29.409Z,41.25
2022-08-14T16:10:32.998Z,40.44
2022-08-14T16:12:41.819Z,41.48
2022-08-14T16:14:50.037Z,41.03
2022-08-14T16:17:00.464Z,41.14
2022-08-14T16:19:09.704Z,41.49
2022-08-14T16:21:15.495Z,40.91
2022-08-14T16:23:20.933Z,41.54
2022-08-14T16:25:34.359Z,41.85
2022-08-14T16:27:41.248Z,40.64
2022-08-14T16:29:45.092Z,41.31
2022-08-14T16:31:49.281Z,40.83
2022-08-14T16:33:59.705Z,41.11
2022-08-14T16:36:19.700Z,41.65
2022-08-14T16:38:45.758Z,42.14
2022-08-14T16:41:11.682Z,41.00
2022-08-14T16:43:16.611Z,41.16
2022-08-14T16:45:23.491Z,41.13
2022-08-14T16:47:31.986Z,40.88
2022-08-14T16:50:02.780Z,41.10
2022-08-14T16:52:04.442Z,41.83
2022-08-14T16:54:35.435Z,41.54
2022-08-14T16:56:47.781Z,41.57
2022-08-14T16:59:06.031Z,40.91
2022-08-14T17:01:24.343Z,41.96
2022-08-14T17:03:29.024Z,42.39
2022-08-14T17:05:47.085Z,42.64
2022-08-14T17:08:31.781Z,41.74
2022-08-14T17:11:00.121Z,42.79
2022-08-14T17:13:17.620Z,42.70
2022-08-14T17:15:21.024Z,43.28
2022-08-14T17:17:29.282Z,42.63
2022-08-14T17:19:41.146Z,43.23
2022-08-14T17:21:47.557Z,41.92
2022-08-14T17:23:53.547Z,42.27
2022-08-14T17:25:57.055Z,42.34
2022-08-14T17:28:49.926Z,42.56
2022-08-14T17:30:49.339Z,41.57
2022-08-14T17:32:56.075Z,42.42
2022-08-14T17:35:01.930Z,42.23
2022-08-14T17:37:06.131Z,41.58
2022-08-14T17:39:19.752Z,41.40
2022-08-14T17:41:32.969Z,41.66
2022-08-14T17:43:42.854Z,42.13
2022-08-14T17:45:46.813Z,41.78
2022-08-14T17:47:51.307Z,42.60
2022-08-14T17:49:56.624Z,42.23
2022-08-14T17:52:07.517Z,44.25
2022-08-14T17:54:34.580Z,44.80
2022-08-14T17:56:38.811Z,45.72
2022-08-14T17:58:42.633Z,47.46
2022-08-14T18:00:46.615Z,47.80
2022-08-14T18:02:53.935Z,47.80
2022-08-14T18:05:00.154Z,48.51
2022-08-14T18:07:16.906Z,48.47
2022-08-14T18:09:32.951Z,48.97
2022-08-14T18:11:45.799Z,49.94
2022-08-14T18:13:52.708Z,50.53
2022-08-14T18:15:57.887Z,50.46
2022-08-14T18:18:02.062Z,50.61
2022-08-14T18:21:24.050Z,49.98
2022-08-14T18:22:37.035Z,49.39
2022-08-14T18:24:44.126Z,50.51
2022-08-14T18:26:51.262Z,50.36
2022-08-14T18:29:14.762Z,49.72
2022-08-14T18:31:43.375Z,49.44
2022-08-14T18:33:55.307Z,49.45
2022-08-14T18:36:46.583Z,49.60
2022-08-14T18:38:26.503Z,49.99
2022-08-14T18:40:50.437Z,50.37
2022-08-14T18:42:57.196Z,50.81
2022-08-14T18:45:15.648Z,50.80
2022-08-14T18:47:22.148Z,50.68
2022-08-14T18:49:25.195Z,52.94
2022-08-14T18:51:45.277Z,62.64
2022-08-14T18:53:55.358Z,56.65
2022-08-14T18:56:09.768Z,58.64
2022-08-14T18:58:25.991Z,61.51
2022-08-14T19:00:54.679Z,60.22
2022-08-14T19:02:58.400Z,57.39
2022-08-14T19:05:02.557Z,56.77
2022-08-14T19:07:16.379Z,54.19
2022-08-14T19:09:57.824Z,54.88
2022-08-14T19:12:02.784Z,55.18
2022-08-14T19:14:08.807Z,54.60
2022-08-14T19:16:14.542Z,57.74
2022-08-14T19:18:26.502Z,59.51
2022-08-14T19:20:46.357Z,58.47
2022-08-14T19:22:55.183Z,59.17
2022-08-14T19:24:58.982Z,59.76
2022-08-14T19:27:24.796Z,57.81
2022-08-14T19:29:37.700Z,57.17
2022-08-14T19:31:55.087Z,56.23
2022-08-14T19:34:00.279Z,57.30
2022-08-14T19:36:31.484Z,55.94
2022-08-14T19:38:54.202Z,57.94
2022-08-14T19:40:57.295Z,58.79
2022-08-14T19:43:09.362Z,59.44
2022-08-14T19:45:15.579Z,58.78
2022-08-14T19:47:19.130Z,58.84
2022-08-14T19:50:24.724Z,58.24
2022-08-14T19:51:55.611Z,55.71
2022-08-14T19:54:06.536Z,55.00
2022-08-14T19:56:28.561Z,54.92
2022-08-14T19:58:54.413Z,55.47
2022-08-14T20:00:59.605Z,58.39
2022-08-14T20:03:11.912Z,58.06
2022-08-14T20:05:18.786Z,58.96
2022-08-14T20:08:00.463Z,58.84
2022-08-14T20:11:03.834Z,59.12
2022-08-14T20:12:28.974Z,58.68
2022-08-14T20:14:40.117Z,58.25
2022-08-14T20:17:03.226Z,57.65
2022-08-14T20:19:24.670Z,55.97
2022-08-14T20:21:34.359Z,55.39
2022-08-14T20:23:38.884Z,56.72
2022-08-14T20:25:55.827Z,55.17
2022-08-14T20:28:29.829Z,55.05
2022-08-14T20:30:36.414Z,54.13
2022-08-14T20:32:41.122Z,54.08
2022-08-14T20:34:51.479Z,55.47
2022-08-14T20:37:09.538Z,54.49
2022-08-14T20:39:15.429Z,54.73
2022-08-14T20:41:21.259Z,54.05
2022-08-14T20:43:44.994Z,53.90
2022-08-14T20:45:52.144Z,53.75
2022-08-14T20:47:58.307Z,54.23
2022-08-14T20:50:16.651Z,54.79
2022-08-14T20:52:21.129Z,54.52
2022-08-14T20:54:34.673Z,54.74
2022-08-14T20:56:41.663Z,56.31
2022-08-14T20:58:44.675Z,57.09
2022-08-14T21:01:00.521Z,57.73
2022-08-14T21:03:31.303Z,58.36
2022-08-14T21:05:34.635Z,58.21
2022-08-14T21:07:38.916Z,57.78
2022-08-14T21:10:06.637Z,57.63
2022-08-14T21:12:34.745Z,59.90
2022-08-14T21:14:34.180Z,58.71
2022-08-14T21:16:45.108Z,58.71
2022-08-14T21:19:02.455Z,59.19
2022-08-14T21:21:09.472Z,58.94
2022-08-14T21:23:14.140Z,57.44
2022-08-14T21:25:20.793Z,57.38
2022-08-14T21:27:24.044Z,58.64
2022-08-14T21:29:27.090Z,59.31
2022-08-14T21:31:30.962Z,61.39
2022-08-14T21:33:35.486Z,60.85
2022-08-14T21:35:46.409Z,60.12
2022-08-14T21:37:52.378Z,60.08
2022-08-14T21:39:58.523Z,58.80
2022-08-14T21:42:04.632Z,57.53
2022-08-14T21:44:17.427Z,55.95
2022-08-14T21:46:23.484Z,57.42
2022-08-14T21:48:29.732Z,55.69
2022-08-14T21:51:00.830Z,56.22
2022-08-14T21:53:01.041Z,56.17
2022-08-14T21:55:09.133Z,58.14
2022-08-14T21:57:17.327Z,58.17
2022-08-14T21:59:24.419Z,59.93
2022-08-14T22:02:00.831Z,61.01
2022-08-14T22:03:59.313Z,61.13
2022-08-14T22:06:04.156Z,61.66
2022-08-14T22:08:12.453Z,61.47
2022-08-14T22:10:23.076Z,61.71
2022-08-14T22:12:47.177Z,60.69
2022-08-14T22:14:50.823Z,58.84
2022-08-14T22:17:00.575Z,58.29
2022-08-14T22:19:18.153Z,58.40
2022-08-14T22:21:23.295Z,57.21
2022-08-14T22:23:27.895Z,58.35
2022-08-14T22:25:31.952Z,57.13
2022-08-14T22:27:37.885Z,59.12
2022-08-14T22:29:59.775Z,60.02
2022-08-14T22:32:07.018Z,60.11
2022-08-14T22:34:11.784Z,60.17
2022-08-14T22:36:42.251Z,59.43
2022-08-14T22:38:49.946Z,59.48
2022-08-14T22:41:08.931Z,60.15
2022-08-14T22:43:17.482Z,60.88
2022-08-14T22:45:20.736Z,60.36
2022-08-14T22:47:25.490Z,60.26
2022-08-14T22:50:29.071Z,59.40
2022-08-14T22:51:53.777Z,61.28
2022-08-14T22:53:59.027Z,60.97
2022-08-14T22:56:02.285Z,61.12
2022-08-14T22:58:07.706Z,62.02
2022-08-14T23:00:14.373Z,61.38
2022-08-14T23:02:22.208Z,62.02
2022-08-14T23:04:53.767Z,62.31
2022-08-14T23:07:04.503Z,62.53
2022-08-14T23:09:35.893Z,63.62
2022-08-14T23:11:33.614Z,62.44
2022-08-14T23:13:39.007Z,63.30
2022-08-14T23:15:42.631Z,61.42
2022-08-14T23:17:46.337Z,61.94
2022-08-14T23:19:56.153Z,61.73
2022-08-14T23:22:00.781Z,61.68
2022-08-14T23:24:04.954Z,61.90
2022-08-14T23:26:48.050Z,62.05
2022-08-14T23:28:57.268Z,60.49
2022-08-14T23:30:56.136Z,62.08
2022-08-14T23:32:59.856Z,62.17
2022-08-14T23:35:05.718Z,63.08
2022-08-14T23:37:08.840Z,63.36
2022-08-14T23:39:19.149Z,63.59
2022-08-14T23:41:23.782Z,62.92
2022-08-14T23:43:31.122Z,63.54
2022-08-14T23:45:37.214Z,62.90
2022-08-14T23:47:52.140Z,62.15
2022-08-14T23:50:01.430Z,62.94
2022-08-14T23:52:55.633Z,62.23
2022-08-14T23:54:48.715Z,63.17
2022-08-14T23:57:02.542Z,63.02
2022-08-14T23:59:06.748Z,63.80
